KBFD/BFD METAR and TAF weather

Enter ICAO airport designator
Station Type Date Time Source
KBFD METAR 2020/01/21 17:53 UTC NOAA

KBFD 211753Z AUTO 29009KT 10SM OVC017 M06/M11 A3038 RMK AO2 SNB23E31 SLP326 P0000 60000 T10611106 11061 21089 58005


Station Type Date Time Source
KBFD Decoded METAR 2020/01/21 17:53 UTC NOAA

BRADFORD REGIONAL AIRPORT, PA, United States (KBFD) 41-48N 078-38W 647M
Jan 21, 2020 - 12:53 PM EST / 2020.01.21 1753 UTC
Wind: from the WNW (290 degrees) at 10 MPH (9 KT):0
Visibility: 10 mile(s):0
Sky conditions: overcast
Precipitation last hour: A trace
Temperature: 21.0 F (-6.1 C)
Windchill: 10 F (-12 C):1
Dew Point: 12.9 F (-10.6 C)
Relative Humidity: 70%
Pressure (altimeter): 30.38 in. Hg (1028 hPa)
Pressure tendency: 0.01 inches (0.5 hPa) lower than three hours ago
ob: KBFD 211753Z AUTO 29009KT 10SM OVC017 M06/M11 A3038 RMK AO2 SNB23E31 SLP326 P0000 60000 T10611106 11061 21089 58005
cycle: 18

Station Type Date Time Source
KBFD TAF 2020/01/21 18:33 UTC NOAA

TAF KBFD 211730Z 2118/2218 27010KT P6SM OVC025
TEMPO 2118/2122 -SHSN OVC015
FM220300 27005KT P6SM OVC012
TEMPO 2209/2213 OVC008
FM221500 21008KT P6SM BKN250

Example: see airport list